createdAt,value
2022-11-24T00:01:26.695Z,5.10
2022-11-24T00:04:00.560Z,5.10
2022-11-24T00:06:29.135Z,5.00
2022-11-24T00:08:57.237Z,5.00
2022-11-24T00:11:26.619Z,5.00
2022-11-24T00:13:54.022Z,5.00
2022-11-24T00:16:26.507Z,5.00
2022-11-24T00:18:56.821Z,5.00
2022-11-24T00:21:25.425Z,5.00
2022-11-24T00:23:53.155Z,5.00
2022-11-24T00:26:22.596Z,5.00
2022-11-24T00:28:51.842Z,5.00
2022-11-24T00:31:27.703Z,5.00
2022-11-24T00:33:57.558Z,5.00
2022-11-24T00:36:26.934Z,5.00
2022-11-24T00:38:58.984Z,5.00
2022-11-24T00:41:28.116Z,5.00
2022-11-24T00:43:56.152Z,5.00
2022-11-24T00:46:24.269Z,5.00
2022-11-24T00:48:52.205Z,5.00
2022-11-24T00:51:21.379Z,5.00
2022-11-24T00:53:48.805Z,5.00
2022-11-24T00:56:16.177Z,5.00
2022-11-24T00:58:43.331Z,5.00
2022-11-24T01:01:19.603Z,5.00
2022-11-24T01:03:47.675Z,5.00
2022-11-24T01:06:18.122Z,5.00
2022-11-24T01:08:46.002Z,5.00
2022-11-24T01:11:14.635Z,5.00
2022-11-24T01:13:43.733Z,5.10
2022-11-24T01:16:31.706Z,5.10
2022-11-24T01:18:58.932Z,5.10
2022-11-24T01:21:26.269Z,5.10
2022-11-24T01:23:53.544Z,5.10
2022-11-24T01:26:22.704Z,5.10
2022-11-24T01:28:59.567Z,5.10
2022-11-24T01:31:27.383Z,5.10
2022-11-24T01:33:54.980Z,5.10
2022-11-24T01:36:22.593Z,5.10
2022-11-24T01:38:49.902Z,5.10
2022-11-24T01:41:22.954Z,5.10
2022-11-24T01:43:52.313Z,5.10
2022-11-24T01:46:33.700Z,5.10
2022-11-24T01:49:11.677Z,5.10
2022-11-24T01:51:58.284Z,5.10
2022-11-24T01:54:32.396Z,5.10
2022-11-24T01:57:07.973Z,5.10
2022-11-24T01:59:35.524Z,5.10
2022-11-24T02:02:02.772Z,5.10
2022-11-24T02:04:33.649Z,5.10
2022-11-24T02:07:02.880Z,5.10
2022-11-24T02:09:36.838Z,5.10
2022-11-24T02:12:04.276Z,5.10
2022-11-24T02:14:31.650Z,5.10
2022-11-24T02:16:58.996Z,5.10
2022-11-24T02:19:41.186Z,5.10
2022-11-24T02:22:20.537Z,5.10
2022-11-24T02:24:56.465Z,5.10
2022-11-24T02:27:23.839Z,5.10
2022-11-24T02:29:51.534Z,5.10
2022-11-24T02:32:20.316Z,5.10
2022-11-24T02:34:47.581Z,5.10
2022-11-24T02:37:14.680Z,5.10
2022-11-24T02:39:41.941Z,5.10
2022-11-24T02:42:13.254Z,5.10
2022-11-24T02:44:45.826Z,5.10
2022-11-24T02:47:13.832Z,5.10
2022-11-24T02:49:41.409Z,5.10
2022-11-24T02:52:09.019Z,5.20
2022-11-24T02:54:36.386Z,5.20
2022-11-24T02:57:04.194Z,5.20
2022-11-24T02:59:31.660Z,5.20
2022-11-24T03:01:58.826Z,5.20
2022-11-24T03:04:26.184Z,5.20
2022-11-24T03:06:53.392Z,5.10
2022-11-24T03:09:20.603Z,5.20
2022-11-24T03:11:47.824Z,5.20
2022-11-24T03:14:15.000Z,5.20
2022-11-24T03:16:42.211Z,5.20
2022-11-24T03:19:09.299Z,5.20
2022-11-24T03:21:39.439Z,5.20
2022-11-24T03:24:06.621Z,5.20
2022-11-24T03:26:35.464Z,5.30
2022-11-24T03:29:02.796Z,5.30
2022-11-24T03:31:30.092Z,5.30
2022-11-24T03:33:57.233Z,5.30
2022-11-24T03:36:24.417Z,5.30
2022-11-24T03:38:51.522Z,5.30
2022-11-24T03:41:18.828Z,5.30
2022-11-24T03:43:45.911Z,5.30
2022-11-24T03:46:13.494Z,5.30
2022-11-24T03:48:41.272Z,5.30
2022-11-24T03:51:08.360Z,5.30
2022-11-24T03:53:35.564Z,5.30
2022-11-24T03:56:04.106Z,5.30
2022-11-24T03:58:31.438Z,5.30
2022-11-24T04:00:58.964Z,5.30
2022-11-24T04:03:26.549Z,5.30
2022-11-24T04:05:53.688Z,5.30
2022-11-24T04:08:21.321Z,5.30
2022-11-24T04:10:53.413Z,5.30
2022-11-24T04:13:24.146Z,5.30
2022-11-24T04:15:51.817Z,5.30
2022-11-24T04:18:19.792Z,5.30
2022-11-24T04:20:51.949Z,5.30
2022-11-24T04:23:19.523Z,5.30
2022-11-24T04:25:46.800Z,5.30
2022-11-24T04:28:14.048Z,5.30
2022-11-24T04:30:45.056Z,5.40
2022-11-24T04:33:12.997Z,5.30
2022-11-24T04:35:40.110Z,5.40
2022-11-24T04:38:07.300Z,5.40
2022-11-24T04:40:34.688Z,5.40
2022-11-24T04:43:01.756Z,5.40
2022-11-24T04:45:28.865Z,5.40
2022-11-24T04:47:56.184Z,5.40
2022-11-24T04:50:23.337Z,5.40
2022-11-24T04:52:50.530Z,5.40
2022-11-24T04:55:17.777Z,5.30
2022-11-24T04:57:45.020Z,5.30
2022-11-24T05:00:12.840Z,5.30
2022-11-24T05:02:40.146Z,5.40
2022-11-24T05:05:08.252Z,5.40
2022-11-24T05:07:35.426Z,5.40
2022-11-24T05:10:21.281Z,5.40
2022-11-24T05:12:56.398Z,5.40
2022-11-24T05:15:24.117Z,5.40
2022-11-24T05:17:51.226Z,5.40
2022-11-24T05:20:18.723Z,5.40
2022-11-24T05:22:45.983Z,5.40
2022-11-24T05:25:14.411Z,5.40
2022-11-24T05:27:41.944Z,5.40
2022-11-24T05:30:09.760Z,5.40
2022-11-24T05:32:36.769Z,5.40
2022-11-24T05:35:04.739Z,5.40
2022-11-24T05:37:31.828Z,5.40
2022-11-24T05:39:58.907Z,5.40
2022-11-24T05:42:46.197Z,5.40
2022-11-24T05:45:19.674Z,5.50
2022-11-24T05:47:47.730Z,5.50
2022-11-24T05:50:18.360Z,5.50
2022-11-24T05:52:45.725Z,5.50
2022-11-24T05:55:14.835Z,5.50
2022-11-24T05:57:42.154Z,5.50
2022-11-24T06:00:10.402Z,5.50
2022-11-24T06:02:37.777Z,5.50
2022-11-24T06:05:05.345Z,5.50
2022-11-24T06:07:32.524Z,5.50
2022-11-24T06:09:59.833Z,5.60
2022-11-24T06:12:26.931Z,5.60
2022-11-24T06:14:53.951Z,5.50
2022-11-24T06:17:21.007Z,5.50
2022-11-24T06:19:50.269Z,5.50
2022-11-24T06:22:19.326Z,5.50
2022-11-24T06:24:47.288Z,5.50
2022-11-24T06:27:14.936Z,5.50
2022-11-24T06:29:42.156Z,5.50
2022-11-24T06:32:09.654Z,5.50
2022-11-24T06:34:36.982Z,5.50
2022-11-24T06:37:04.231Z,5.50
2022-11-24T06:39:31.314Z,5.50
2022-11-24T06:41:59.237Z,5.50
2022-11-24T06:44:26.660Z,5.50
2022-11-24T06:46:53.885Z,5.50
2022-11-24T06:49:20.982Z,5.50
2022-11-24T06:51:48.128Z,5.50
2022-11-24T06:54:16.946Z,5.50
2022-11-24T06:56:44.428Z,5.60
2022-11-24T06:59:17.917Z,5.50
2022-11-24T07:01:45.299Z,5.50
2022-11-24T07:04:12.425Z,5.60
2022-11-24T07:06:41.491Z,5.50
2022-11-24T07:09:10.411Z,5.60
2022-11-24T07:11:38.496Z,5.60
2022-11-24T07:14:05.842Z,5.60
2022-11-24T07:16:33.255Z,5.60
2022-11-24T07:19:00.816Z,5.60
2022-11-24T07:21:30.701Z,5.60
2022-11-24T07:23:58.607Z,5.60
2022-11-24T07:26:26.677Z,5.60
2022-11-24T07:28:53.729Z,5.60
2022-11-24T07:31:25.277Z,5.60
2022-11-24T07:33:54.156Z,5.60
2022-11-24T07:36:21.983Z,5.60
2022-11-24T07:38:49.617Z,5.60
2022-11-24T07:41:19.743Z,5.60
2022-11-24T07:43:47.544Z,5.60
2022-11-24T07:46:17.191Z,5.60
2022-11-24T07:48:44.530Z,5.60
2022-11-24T07:51:11.788Z,5.60
2022-11-24T07:53:39.481Z,5.60
2022-11-24T07:56:07.169Z,5.60
2022-11-24T07:58:36.390Z,5.60
2022-11-24T08:01:12.199Z,5.70
2022-11-24T08:03:39.942Z,5.70
2022-11-24T08:06:35.407Z,5.70
2022-11-24T08:08:55.504Z,5.70
2022-11-24T08:11:22.837Z,5.70
2022-11-24T08:13:49.969Z,5.70
2022-11-24T08:16:19.526Z,5.70
2022-11-24T08:18:55.263Z,5.70
2022-11-24T08:21:25.271Z,5.80
2022-11-24T08:23:56.457Z,5.80
2022-11-24T08:26:25.153Z,5.80
2022-11-24T08:28:58.855Z,5.80
2022-11-24T08:31:32.978Z,5.80
2022-11-24T08:34:01.158Z,5.80
2022-11-24T08:36:28.247Z,5.90
2022-11-24T08:38:59.685Z,5.90
2022-11-24T08:41:27.929Z,5.90
2022-11-24T08:43:55.686Z,5.90
2022-11-24T08:46:24.113Z,5.90
2022-11-24T08:48:53.339Z,5.90
2022-11-24T08:51:26.235Z,6.00
2022-11-24T08:53:58.487Z,6.00
2022-11-24T08:56:27.639Z,6.10
2022-11-24T08:58:55.765Z,6.10
2022-11-24T09:01:22.993Z,6.10
2022-11-24T09:03:51.479Z,6.10
2022-11-24T09:06:23.102Z,6.20
2022-11-24T09:08:50.902Z,6.20
2022-11-24T09:11:18.653Z,6.20
2022-11-24T09:13:45.779Z,6.20
2022-11-24T09:16:18.807Z,6.20
2022-11-24T09:18:46.202Z,6.30
2022-11-24T09:21:19.139Z,6.30
2022-11-24T09:23:50.916Z,6.30
2022-11-24T09:26:22.912Z,6.40
2022-11-24T09:28:54.511Z,6.40
2022-11-24T09:31:26.829Z,6.40
2022-11-24T09:33:54.513Z,6.40
2022-11-24T09:36:22.338Z,6.40
2022-11-24T09:38:49.782Z,6.40
2022-11-24T09:41:31.838Z,6.50
2022-11-24T09:44:24.971Z,6.50
2022-11-24T09:47:19.775Z,6.50
2022-11-24T09:50:00.986Z,6.50
2022-11-24T09:52:41.594Z,6.60
2022-11-24T09:55:37.039Z,6.60
2022-11-24T09:58:15.790Z,6.60
2022-11-24T10:00:43.573Z,6.50
2022-11-24T10:03:24.886Z,6.50
2022-11-24T10:05:52.606Z,6.50
2022-11-24T10:08:34.363Z,6.50
2022-11-24T10:11:05.614Z,6.50
2022-11-24T10:13:41.593Z,6.50
2022-11-24T10:16:32.692Z,6.50
2022-11-24T10:19:34.494Z,6.50
2022-11-24T10:22:52.602Z,6.60
2022-11-24T10:25:22.916Z,6.60
2022-11-24T10:28:02.044Z,6.60
2022-11-24T10:30:29.967Z,6.60
2022-11-24T10:33:01.765Z,6.60
2022-11-24T10:35:36.608Z,6.60
2022-11-24T10:38:20.040Z,6.60
2022-11-24T10:41:09.034Z,6.70
2022-11-24T10:43:41.671Z,6.70
2022-11-24T10:46:16.990Z,6.70
2022-11-24T10:48:50.967Z,6.70
2022-11-24T10:52:01.582Z,6.80
2022-11-24T10:54:28.695Z,6.80
2022-11-24T10:56:56.355Z,6.80
2022-11-24T10:59:38.387Z,6.80
2022-11-24T11:02:39.233Z,6.80
2022-11-24T11:05:38.195Z,6.80
2022-11-24T11:08:29.691Z,6.80
2022-11-24T11:11:18.588Z,6.90
2022-11-24T11:13:52.057Z,7.00
2022-11-24T11:16:43.444Z,7.00
2022-11-24T11:19:50.930Z,7.00
2022-11-24T11:22:26.472Z,7.00
2022-11-24T11:25:05.113Z,7.00
2022-11-24T11:27:32.368Z,7.00
2022-11-24T11:36:11.437Z,7.00
2022-11-24T11:38:39.952Z,7.10
2022-11-24T11:41:17.950Z,7.00
2022-11-24T11:43:47.298Z,7.10
2022-11-24T11:46:18.224Z,7.10
2022-11-24T11:48:47.243Z,7.10
2022-11-24T11:54:49.513Z,7.10
2022-11-24T11:58:07.480Z,7.10
2022-11-24T12:00:40.268Z,7.10
2022-11-24T12:03:33.841Z,7.10
2022-11-24T12:06:23.789Z,7.20
2022-11-24T12:11:59.966Z,7.10
2022-11-24T12:14:53.647Z,7.10
2022-11-24T12:17:56.964Z,7.10
2022-11-24T12:20:58.030Z,7.10
2022-11-24T12:23:54.617Z,7.10
2022-11-24T12:26:34.880Z,7.10
2022-11-24T12:29:01.967Z,7.10
2022-11-24T12:31:54.534Z,7.10
2022-11-24T12:34:21.837Z,7.10
2022-11-24T12:37:26.786Z,7.10
2022-11-24T12:40:31.489Z,7.10
2022-11-24T12:43:19.584Z,7.10
2022-11-24T12:45:49.404Z,7.10
2022-11-24T12:48:25.566Z,7.10
2022-11-24T12:50:55.283Z,7.10
2022-11-24T12:53:34.767Z,7.10
2022-11-24T12:56:12.947Z,7.00
2022-11-24T12:58:50.432Z,7.10
2022-11-24T13:01:20.358Z,7.10
2022-11-24T13:04:10.952Z,7.10
2022-11-24T13:06:50.952Z,7.10
2022-11-24T13:09:18.180Z,7.10
2022-11-24T13:11:49.175Z,7.10
2022-11-24T13:14:23.494Z,7.10
2022-11-24T13:17:28.510Z,7.10
2022-11-24T13:19:47.065Z,7.10
2022-11-24T13:22:34.354Z,7.10
2022-11-24T13:25:16.652Z,7.00
2022-11-24T13:27:46.398Z,7.00
2022-11-24T13:30:35.470Z,7.00
2022-11-24T13:33:16.190Z,7.10
2022-11-24T13:36:02.325Z,7.00
2022-11-24T13:38:53.716Z,7.00
2022-11-24T13:41:33.030Z,7.00
2022-11-24T13:44:26.346Z,7.00
2022-11-24T13:47:06.527Z,7.00
2022-11-24T13:49:42.025Z,6.90
2022-11-24T13:52:42.269Z,6.90
2022-11-24T13:55:12.367Z,6.90
2022-11-24T13:57:41.851Z,6.90
2022-11-24T14:00:36.744Z,6.90
2022-11-24T14:03:24.876Z,6.90
2022-11-24T14:05:53.531Z,6.90
2022-11-24T14:08:26.681Z,6.90
2022-11-24T14:10:59.211Z,6.90
2022-11-24T14:13:28.564Z,6.90
2022-11-24T14:16:10.884Z,6.90
2022-11-24T14:18:39.865Z,6.90
2022-11-24T14:21:30.437Z,6.90
2022-11-24T14:24:11.872Z,6.90
2022-11-24T14:26:41.504Z,6.90
2022-11-24T14:29:28.515Z,6.90
2022-11-24T14:32:05.200Z,6.90
2022-11-24T14:34:35.670Z,6.90
2022-11-24T14:37:02.980Z,6.80
2022-11-24T14:39:30.469Z,6.80
2022-11-24T14:42:10.113Z,6.80
2022-11-24T14:45:00.121Z,6.80
2022-11-24T14:47:32.685Z,6.80
2022-11-24T14:50:22.883Z,6.80
2022-11-24T14:53:00.040Z,6.80
2022-11-24T14:55:29.218Z,6.80
2022-11-24T14:57:56.741Z,6.80
2022-11-24T15:00:28.806Z,6.80
2022-11-24T15:03:01.965Z,6.80
2022-11-24T15:06:01.151Z,6.80
2022-11-24T15:08:43.702Z,6.80
2022-11-24T15:11:10.771Z,6.80
2022-11-24T15:13:38.765Z,6.80
2022-11-24T15:16:16.486Z,6.80
2022-11-24T15:18:46.814Z,6.80
2022-11-24T15:21:19.199Z,6.80
2022-11-24T15:24:25.396Z,6.80
2022-11-24T15:27:00.704Z,6.80
2022-11-24T15:29:27.905Z,6.80
2022-11-24T15:31:54.992Z,6.80
2022-11-24T15:34:22.057Z,6.80
2022-11-24T15:36:49.351Z,6.80
2022-11-24T15:39:16.453Z,6.80
2022-11-24T15:41:43.470Z,6.80
2022-11-24T15:44:10.845Z,6.80
2022-11-24T15:46:38.852Z,6.80
2022-11-24T15:49:07.050Z,6.80
2022-11-24T15:51:35.923Z,6.80
2022-11-24T15:54:03.032Z,6.80
2022-11-24T15:56:35.830Z,6.70
2022-11-24T15:59:04.113Z,6.70
2022-11-24T16:01:33.372Z,6.70
2022-11-24T16:04:01.501Z,6.70
2022-11-24T16:06:28.559Z,6.70
2022-11-24T16:08:55.717Z,6.70
2022-11-24T16:11:23.572Z,6.70
2022-11-24T16:13:53.983Z,6.70
2022-11-24T16:16:22.937Z,6.70
2022-11-24T16:18:50.213Z,6.70
2022-11-24T16:21:17.238Z,6.70
2022-11-24T16:23:44.520Z,6.70
2022-11-24T16:26:11.542Z,6.30
2022-11-24T16:28:38.909Z,6.70
2022-11-24T16:31:06.163Z,6.70
2022-11-24T16:33:33.216Z,6.70
2022-11-24T16:36:00.449Z,6.70
2022-11-24T16:38:27.456Z,6.70
2022-11-24T16:40:56.588Z,6.70
2022-11-24T16:43:24.783Z,6.70
2022-11-24T16:46:12.699Z,6.70
2022-11-24T16:48:39.830Z,6.70
2022-11-24T16:51:08.589Z,6.70
2022-11-24T16:53:35.820Z,6.70
2022-11-24T16:56:03.078Z,6.70
2022-11-24T16:58:30.182Z,6.70
2022-11-24T17:01:11.145Z,6.70
2022-11-24T17:03:39.100Z,6.70
2022-11-24T17:06:08.728Z,6.70
2022-11-24T17:08:36.913Z,6.70
2022-11-24T17:11:13.818Z,6.70
2022-11-24T17:13:41.249Z,6.70
2022-11-24T17:16:11.024Z,6.70
2022-11-24T17:18:39.117Z,6.60
2022-11-24T17:21:09.967Z,6.60
2022-11-24T17:23:37.850Z,6.60
2022-11-24T17:26:07.184Z,6.60
2022-11-24T17:28:35.084Z,6.60
2022-11-24T17:31:14.127Z,6.60
2022-11-24T17:33:41.208Z,6.60
2022-11-24T17:36:08.476Z,6.60
2022-11-24T17:38:37.052Z,6.60
2022-11-24T17:41:04.401Z,6.60
2022-11-24T17:43:31.620Z,6.60
2022-11-24T17:46:01.260Z,6.60
2022-11-24T17:48:29.630Z,6.60
2022-11-24T17:51:10.929Z,6.70
2022-11-24T17:53:39.310Z,6.70
2022-11-24T17:56:07.861Z,6.60
2022-11-24T17:58:41.264Z,6.60
2022-11-24T18:01:10.357Z,6.60
2022-11-24T18:03:39.970Z,6.60
2022-11-24T18:06:08.794Z,6.70
2022-11-24T18:08:41.592Z,6.60
2022-11-24T18:11:17.051Z,6.60
2022-11-24T18:14:01.416Z,6.60
2022-11-24T18:16:31.244Z,6.60
2022-11-24T18:19:08.669Z,6.60
2022-11-24T18:21:37.930Z,6.60
2022-11-24T18:24:05.416Z,6.60
2022-11-24T18:26:32.485Z,6.60
2022-11-24T18:28:59.752Z,6.60
2022-11-24T18:31:27.350Z,6.60
2022-11-24T18:33:54.458Z,6.60
2022-11-24T18:36:27.050Z,6.60
2022-11-24T18:38:57.888Z,6.60
2022-11-24T18:41:24.953Z,6.60
2022-11-24T18:43:52.199Z,6.60
2022-11-24T18:46:19.397Z,6.60
2022-11-24T18:48:47.242Z,6.70
2022-11-24T18:51:14.925Z,6.60
2022-11-24T18:53:43.599Z,6.60
2022-11-24T18:56:16.344Z,6.60
2022-11-24T18:58:44.340Z,6.60
2022-11-24T19:01:16.897Z,6.60
2022-11-24T19:03:49.504Z,6.60
2022-11-24T19:06:19.696Z,6.60
2022-11-24T19:08:47.725Z,6.60
2022-11-24T19:11:23.734Z,6.60
2022-11-24T19:13:53.798Z,6.60
2022-11-24T19:16:21.844Z,6.60
2022-11-24T19:18:54.235Z,6.60
2022-11-24T19:21:22.131Z,6.60
2022-11-24T19:23:50.258Z,6.60
2022-11-24T19:26:17.556Z,6.60
2022-11-24T19:28:44.885Z,6.60
2022-11-24T19:31:14.159Z,6.60
2022-11-24T19:33:45.486Z,6.50
2022-11-24T19:36:20.685Z,6.50
2022-11-24T19:38:52.889Z,6.40
2022-11-24T19:41:22.419Z,6.40
2022-11-24T19:43:50.177Z,6.40
2022-11-24T19:46:18.854Z,6.40
2022-11-24T19:48:50.385Z,6.40
2022-11-24T19:51:19.181Z,6.40
2022-11-24T19:53:46.719Z,6.40
2022-11-24T19:56:17.497Z,6.40
2022-11-24T19:58:44.894Z,6.40
2022-11-24T20:01:18.009Z,6.40
2022-11-24T20:03:47.781Z,6.40
2022-11-24T20:06:15.866Z,6.40
2022-11-24T20:08:43.760Z,6.40
2022-11-24T20:11:15.934Z,6.40
2022-11-24T20:13:45.300Z,6.40
2022-11-24T20:16:26.743Z,6.40
2022-11-24T20:19:01.754Z,6.40
2022-11-24T20:21:32.786Z,6.40
2022-11-24T20:24:08.517Z,6.30
2022-11-24T20:26:41.659Z,6.30
2022-11-24T20:29:13.704Z,6.30
2022-11-24T20:31:46.981Z,6.30
2022-11-24T20:34:15.299Z,6.30
2022-11-24T20:36:48.431Z,6.30
2022-11-24T20:39:26.500Z,6.20
2022-11-24T20:41:55.538Z,6.20
2022-11-24T20:44:27.885Z,6.20
2022-11-24T20:46:57.065Z,6.10
2022-11-24T20:49:24.440Z,6.10
2022-11-24T20:51:57.254Z,6.10
2022-11-24T20:54:24.846Z,6.20
2022-11-24T20:56:52.294Z,7.10
2022-11-24T20:59:24.801Z,6.20
2022-11-24T21:01:56.057Z,6.20
2022-11-24T21:04:28.061Z,6.20
2022-11-24T21:06:56.109Z,6.20
2022-11-24T21:09:27.413Z,6.30
2022-11-24T21:11:54.953Z,6.30
2022-11-24T21:14:22.120Z,6.30
2022-11-24T21:16:49.322Z,6.40
2022-11-24T21:19:20.699Z,6.40
2022-11-24T21:21:51.178Z,6.40
2022-11-24T21:24:21.966Z,6.40
2022-11-24T21:26:53.008Z,6.50
2022-11-24T21:29:24.048Z,6.50
2022-11-24T21:31:51.592Z,6.50
2022-11-24T21:34:19.635Z,6.50
2022-11-24T21:36:47.547Z,6.50
2022-11-24T21:39:15.530Z,6.60
2022-11-24T21:41:46.105Z,6.60
2022-11-24T21:44:13.739Z,6.60
2022-11-24T21:46:46.256Z,6.60
2022-11-24T21:49:18.526Z,6.60
2022-11-24T21:51:46.443Z,6.60
2022-11-24T21:54:13.754Z,6.60
2022-11-24T21:56:40.786Z,6.60
2022-11-24T21:59:07.940Z,6.60
2022-11-24T22:01:35.138Z,6.60
2022-11-24T22:04:02.193Z,6.60
2022-11-24T22:06:29.324Z,6.60
2022-11-24T22:08:56.376Z,6.70
2022-11-24T22:11:25.263Z,6.60
2022-11-24T22:13:53.068Z,6.60
2022-11-24T22:16:24.876Z,6.60
2022-11-24T22:18:52.694Z,6.60
2022-11-24T22:21:30.169Z,6.60
2022-11-24T22:23:57.435Z,6.70
2022-11-24T22:26:24.923Z,6.60
2022-11-24T22:28:53.413Z,6.60
2022-11-24T22:31:26.497Z,6.60
2022-11-24T22:33:55.373Z,6.60
2022-11-24T22:36:24.915Z,6.60
2022-11-24T22:38:57.406Z,6.60
2022-11-24T22:41:24.909Z,6.60
2022-11-24T22:43:52.165Z,6.60
2022-11-24T22:46:24.864Z,6.70
2022-11-24T22:48:55.801Z,6.70
2022-11-24T22:51:27.011Z,6.70
2022-11-24T22:53:56.830Z,6.70
2022-11-24T22:56:24.782Z,6.70
2022-11-24T22:58:52.071Z,6.70
2022-11-24T23:01:24.414Z,6.70
2022-11-24T23:03:54.633Z,6.70
2022-11-24T23:06:29.759Z,6.70
2022-11-24T23:08:58.551Z,6.70
2022-11-24T23:11:37.235Z,6.70
2022-11-24T23:14:12.386Z,6.70
2022-11-24T23:16:40.306Z,6.70
2022-11-24T23:19:07.562Z,6.70
2022-11-24T23:21:38.447Z,6.70
2022-11-24T23:24:06.472Z,6.70
2022-11-24T23:26:39.619Z,6.70
2022-11-24T23:29:08.495Z,7.20
2022-11-24T23:31:35.831Z,6.70
2022-11-24T23:34:04.655Z,6.70
2022-11-24T23:36:33.140Z,6.70
2022-11-24T23:39:11.100Z,6.70
2022-11-24T23:41:38.685Z,6.70
2022-11-24T23:44:06.071Z,6.70
2022-11-24T23:46:33.533Z,6.70
2022-11-24T23:49:00.710Z,6.70
2022-11-24T23:51:32.970Z,6.70
2022-11-24T23:56:46.303Z,6.80
2022-11-24T23:59:13.552Z,6.70
